createdAt,value
2022-09-03T00:00:46.960Z,0.80
2022-09-03T00:01:46.997Z,0.80
2022-09-03T00:02:46.955Z,1.00
2022-09-03T00:03:46.911Z,0.70
2022-09-03T00:04:46.927Z,0.90
2022-09-03T00:05:46.912Z,0.90
2022-09-03T00:06:46.965Z,0.90
2022-09-03T00:07:46.884Z,1.00
2022-09-03T00:08:46.969Z,1.00
2022-09-03T00:09:46.887Z,1.10
2022-09-03T00:10:46.884Z,0.90
2022-09-03T00:11:46.832Z,0.90
2022-09-03T00:12:46.849Z,0.70
2022-09-03T00:13:46.862Z,0.90
2022-09-03T00:14:46.828Z,1.10
2022-09-03T00:15:46.847Z,1.00
2022-09-03T00:16:47.905Z,1.10
2022-09-03T00:17:46.775Z,1.00
2022-09-03T00:18:46.789Z,1.20
2022-09-03T00:19:46.758Z,0.90
2022-09-03T00:20:46.766Z,1.10
2022-09-03T00:21:46.740Z,1.10
2022-09-03T00:22:46.754Z,0.90
2022-09-03T00:23:46.718Z,1.00
2022-09-03T00:24:46.702Z,0.70
2022-09-03T00:25:46.707Z,0.80
2022-09-03T00:26:46.725Z,1.00
2022-09-03T00:27:46.704Z,0.90
2022-09-03T00:28:46.667Z,0.80
2022-09-03T00:29:46.680Z,1.00
2022-09-03T00:30:46.724Z,0.90
2022-09-03T00:31:46.645Z,0.80
2022-09-03T00:32:46.625Z,1.00
2022-09-03T00:33:46.630Z,0.90
2022-09-03T00:34:46.636Z,1.00
2022-09-03T00:35:46.597Z,1.00
2022-09-03T00:36:46.586Z,1.00
2022-09-03T00:37:46.570Z,0.80
2022-09-03T00:38:46.564Z,1.00
2022-09-03T00:39:46.590Z,1.10
2022-09-03T00:40:46.558Z,0.90
2022-09-03T00:41:46.535Z,0.80
2022-09-03T00:42:46.541Z,1.00
2022-09-03T00:43:46.520Z,0.90
2022-09-03T00:44:46.520Z,0.90
2022-09-03T00:45:46.492Z,1.20
2022-09-03T00:46:46.571Z,1.00
2022-09-03T00:47:46.509Z,1.00
2022-09-03T00:48:46.488Z,1.10
2022-09-03T00:49:46.520Z,0.80
2022-09-03T00:50:46.447Z,1.10
2022-09-03T00:51:46.435Z,1.10
2022-09-03T00:52:46.431Z,1.20
2022-09-03T00:53:46.468Z,1.40
2022-09-03T00:54:46.415Z,0.80
2022-09-03T00:55:46.394Z,1.00
2022-09-03T00:56:46.382Z,1.10
2022-09-03T00:57:47.682Z,1.00
2022-09-03T00:58:47.393Z,1.00
2022-09-03T00:59:46.399Z,1.30
2022-09-03T01:00:46.346Z,1.00
2022-09-03T01:01:46.466Z,0.90
2022-09-03T01:02:46.439Z,1.00
2022-09-03T01:03:46.311Z,1.10
2022-09-03T01:04:46.311Z,1.10
2022-09-03T01:05:47.290Z,1.10
2022-09-03T01:06:47.288Z,1.00
2022-09-03T01:07:46.271Z,0.90
2022-09-03T01:08:46.577Z,1.00
2022-09-03T01:09:46.263Z,1.20
2022-09-03T01:10:46.276Z,1.20
2022-09-03T01:11:46.225Z,0.80
2022-09-03T01:12:46.248Z,1.20
2022-09-03T01:13:46.210Z,1.00
2022-09-03T01:14:46.206Z,1.10
2022-09-03T01:15:46.263Z,1.10
2022-09-03T01:16:46.183Z,1.10
2022-09-03T01:17:46.196Z,1.10
2022-09-03T01:18:46.164Z,1.00
2022-09-03T01:19:58.010Z,1.40
2022-09-03T01:20:46.120Z,0.90
2022-09-03T01:21:46.113Z,0.90
2022-09-03T01:22:46.111Z,1.20
2022-09-03T01:23:46.156Z,1.10
2022-09-03T01:24:46.090Z,1.10
2022-09-03T01:25:46.078Z,1.10
2022-09-03T01:26:46.068Z,0.90
2022-09-03T01:27:46.053Z,1.00
2022-09-03T01:28:46.071Z,1.00
2022-09-03T01:29:46.034Z,1.20
2022-09-03T01:30:46.054Z,1.00
2022-09-03T01:31:46.010Z,1.20
2022-09-03T01:32:46.001Z,0.90
2022-09-03T01:33:45.995Z,0.90
2022-09-03T01:34:45.994Z,1.10
2022-09-03T01:35:45.964Z,0.80
2022-09-03T01:36:45.957Z,0.90
2022-09-03T01:37:45.969Z,1.00
2022-09-03T01:38:45.966Z,0.90
2022-09-03T01:39:45.946Z,1.20
2022-09-03T01:40:45.922Z,1.10
2022-09-03T01:41:45.917Z,0.80
2022-09-03T01:42:45.891Z,0.90
2022-09-03T01:43:45.945Z,1.10
2022-09-03T01:44:45.877Z,0.90
2022-09-03T01:45:51.599Z,1.10
2022-09-03T01:46:45.990Z,1.00
2022-09-03T01:47:45.854Z,0.90
2022-09-03T01:48:45.870Z,0.80
2022-09-03T01:49:45.837Z,0.90
2022-09-03T01:50:45.830Z,1.10
2022-09-03T01:51:45.808Z,1.10
2022-09-03T01:52:45.817Z,1.00
2022-09-03T01:53:45.812Z,1.00
2022-09-03T01:54:45.789Z,1.00
2022-09-03T01:55:45.775Z,1.10
2022-09-03T01:56:45.761Z,1.10
2022-09-03T01:57:45.817Z,1.20
2022-09-03T01:58:45.754Z,0.90
2022-09-03T01:59:45.730Z,1.00
2022-09-03T02:00:45.721Z,0.90
2022-09-03T02:01:45.763Z,1.00
2022-09-03T02:02:45.807Z,1.10
2022-09-03T02:03:45.687Z,0.90
2022-09-03T02:04:45.696Z,0.90
2022-09-03T02:05:45.692Z,1.10
2022-09-03T02:06:45.664Z,1.00
2022-09-03T02:07:45.654Z,1.10
2022-09-03T02:08:45.642Z,1.00
2022-09-03T02:09:45.630Z,1.10
2022-09-03T02:10:45.642Z,1.20
2022-09-03T02:11:45.610Z,1.00
2022-09-03T02:12:45.598Z,0.90
2022-09-03T02:13:45.606Z,1.10
2022-09-03T02:14:45.587Z,1.00
2022-09-03T02:15:45.614Z,1.10
2022-09-03T02:16:45.591Z,1.20
2022-09-03T02:17:45.566Z,1.10
2022-09-03T02:18:45.536Z,1.20
2022-09-03T02:19:45.532Z,1.20
2022-09-03T02:20:45.526Z,1.10
2022-09-03T02:21:45.609Z,1.10
2022-09-03T02:22:45.495Z,1.50
2022-09-03T02:23:45.501Z,1.10
2022-09-03T02:24:45.510Z,1.00
2022-09-03T02:25:45.481Z,1.10
2022-09-03T02:26:45.466Z,1.00
2022-09-03T02:27:45.455Z,1.20
2022-09-03T02:28:45.465Z,1.10
2022-09-03T02:29:45.455Z,1.10
2022-09-03T02:30:45.491Z,0.90
2022-09-03T02:31:45.427Z,1.10
2022-09-03T02:32:45.431Z,1.30
2022-09-03T02:33:45.404Z,1.20
2022-09-03T02:34:45.414Z,1.20
2022-09-03T02:35:45.381Z,1.10
2022-09-03T02:36:45.392Z,1.10
2022-09-03T02:37:45.367Z,1.10
2022-09-03T02:38:45.362Z,1.10
2022-09-03T02:39:45.364Z,1.00
2022-09-03T02:40:45.334Z,1.20
2022-09-03T02:41:45.322Z,1.30
2022-09-03T02:42:46.315Z,1.20
2022-09-03T02:43:45.310Z,1.20
2022-09-03T02:44:45.306Z,1.10
2022-09-03T02:45:45.320Z,1.30
2022-09-03T02:46:45.273Z,1.00
2022-09-03T02:47:45.291Z,1.40
2022-09-03T02:48:45.252Z,1.30
2022-09-03T02:49:45.265Z,1.50
2022-09-03T02:50:45.240Z,1.00
2022-09-03T02:51:45.247Z,1.00
2022-09-03T02:52:45.225Z,1.40
2022-09-03T02:53:45.202Z,1.20
2022-09-03T02:54:45.199Z,1.20
2022-09-03T02:55:45.196Z,1.20
2022-09-03T02:56:45.174Z,1.40
2022-09-03T02:57:45.187Z,1.10
2022-09-03T02:58:45.161Z,1.10
2022-09-03T02:59:45.148Z,1.30
2022-09-03T03:00:45.131Z,1.20
2022-09-03T03:01:46.594Z,1.40
2022-09-03T03:02:45.183Z,1.20
2022-09-03T03:03:45.102Z,1.30
2022-09-03T03:04:45.099Z,1.20
2022-09-03T03:05:45.082Z,1.40
2022-09-03T03:06:47.565Z,1.40
2022-09-03T03:07:45.056Z,1.10
2022-09-03T03:08:45.074Z,1.30
2022-09-03T03:09:45.051Z,1.50
2022-09-03T03:10:45.096Z,1.20
2022-09-03T03:11:45.033Z,1.50
2022-09-03T03:12:45.047Z,1.20
2022-09-03T03:13:45.042Z,1.30
2022-09-03T03:14:45.061Z,1.40
2022-09-03T03:15:45.027Z,1.20
2022-09-03T03:16:45.180Z,1.20
2022-09-03T03:17:44.965Z,1.30
2022-09-03T03:18:44.968Z,1.40
2022-09-03T03:19:44.961Z,1.30
2022-09-03T03:20:44.938Z,1.30
2022-09-03T03:21:44.947Z,1.60
2022-09-03T03:22:44.923Z,1.20
2022-09-03T03:23:44.903Z,1.30
2022-09-03T03:24:44.891Z,1.40
2022-09-03T03:25:44.895Z,1.30
2022-09-03T03:26:44.875Z,1.40
2022-09-03T03:27:44.889Z,1.30
2022-09-03T03:28:44.861Z,1.70
2022-09-03T03:29:44.841Z,1.50
2022-09-03T03:30:44.854Z,1.30
2022-09-03T03:31:44.829Z,1.40
2022-09-03T03:32:44.827Z,1.60
2022-09-03T03:33:44.804Z,1.30
2022-09-03T03:34:44.817Z,1.50
2022-09-03T03:35:44.785Z,1.30
2022-09-03T03:36:44.788Z,1.50
2022-09-03T03:37:44.772Z,1.60
2022-09-03T03:38:44.749Z,1.40
2022-09-03T03:39:44.804Z,1.50
2022-09-03T03:40:44.727Z,1.10
2022-09-03T03:41:44.743Z,1.50
2022-09-03T03:42:44.707Z,1.40
2022-09-03T03:43:44.716Z,1.30
2022-09-03T03:44:44.695Z,1.40
2022-09-03T03:45:44.773Z,1.50
2022-09-03T03:46:44.676Z,1.30
2022-09-03T03:47:44.678Z,1.40
2022-09-03T03:48:44.663Z,1.40
2022-09-03T03:49:44.638Z,1.50
2022-09-03T03:50:44.633Z,1.60
2022-09-03T03:51:44.629Z,1.50
2022-09-03T03:52:44.640Z,1.60
2022-09-03T03:53:44.601Z,1.40
2022-09-03T03:54:44.589Z,1.60
2022-09-03T03:55:44.610Z,1.70
2022-09-03T03:56:44.581Z,1.30
2022-09-03T03:57:45.578Z,1.40
2022-09-03T03:58:44.554Z,1.60
2022-09-03T03:59:44.548Z,1.50
2022-09-03T04:00:44.537Z,1.40
2022-09-03T04:01:44.585Z,1.50
2022-09-03T04:02:44.598Z,2.00
2022-09-03T04:03:44.501Z,1.60
2022-09-03T04:04:44.508Z,1.30
2022-09-03T04:05:48.448Z,1.70
2022-09-03T04:06:44.487Z,1.50
2022-09-03T04:07:44.493Z,1.20
2022-09-03T04:08:45.818Z,1.40
2022-09-03T04:09:44.449Z,1.40
2022-09-03T04:10:44.458Z,1.30
2022-09-03T04:11:44.434Z,1.50
2022-09-03T04:12:44.422Z,1.50
2022-09-03T04:13:44.412Z,1.50
2022-09-03T04:14:44.396Z,1.40
2022-09-03T04:15:44.396Z,1.50
2022-09-03T04:16:44.430Z,1.40
2022-09-03T04:17:44.377Z,1.60
2022-09-03T04:18:44.352Z,1.40
2022-09-03T04:19:44.349Z,1.40
2022-09-03T04:20:44.333Z,1.20
2022-09-03T04:21:44.344Z,1.40
2022-09-03T04:22:44.346Z,1.40
2022-09-03T04:23:44.304Z,1.70
2022-09-03T04:24:44.303Z,1.50
2022-09-03T04:25:44.284Z,1.40
2022-09-03T04:26:44.279Z,1.40
2022-09-03T04:27:44.302Z,1.40
2022-09-03T04:28:44.255Z,1.40
2022-09-03T04:29:44.254Z,1.20
2022-09-03T04:30:44.472Z,1.30
2022-09-03T04:31:44.229Z,1.40
2022-09-03T04:32:44.214Z,1.40
2022-09-03T04:33:44.238Z,1.30
2022-09-03T04:34:44.193Z,1.40
2022-09-03T04:35:44.184Z,1.40
2022-09-03T04:36:44.171Z,1.40
2022-09-03T04:37:44.189Z,1.40
2022-09-03T04:38:44.153Z,1.20
2022-09-03T04:39:44.223Z,1.20
2022-09-03T04:40:44.135Z,1.30
2022-09-03T04:41:44.129Z,1.50
2022-09-03T04:42:44.129Z,1.40
2022-09-03T04:43:44.161Z,1.40
2022-09-03T04:44:44.097Z,1.60
2022-09-03T04:45:44.119Z,1.50
2022-09-03T04:46:44.075Z,1.20
2022-09-03T04:47:44.063Z,1.40
2022-09-03T04:48:44.084Z,1.40
2022-09-03T04:49:44.044Z,1.50
2022-09-03T04:50:44.044Z,1.30
2022-09-03T04:51:44.021Z,1.10
2022-09-03T04:52:44.045Z,1.30
2022-09-03T04:53:44.030Z,1.30
2022-09-03T04:54:44.033Z,1.40
2022-09-03T04:55:43.991Z,1.30
2022-09-03T04:56:43.983Z,1.40
2022-09-03T04:57:43.974Z,1.50
2022-09-03T04:58:44.199Z,1.40
2022-09-03T04:59:43.962Z,1.20
2022-09-03T05:00:44.012Z,1.30
2022-09-03T05:01:43.925Z,1.40
2022-09-03T05:02:43.927Z,1.30
2022-09-03T05:03:43.933Z,1.80
2022-09-03T05:04:43.921Z,1.40
2022-09-03T05:05:43.878Z,1.30
2022-09-03T05:06:43.888Z,1.20
2022-09-03T05:07:43.860Z,1.60
2022-09-03T05:08:43.891Z,1.50
2022-09-03T05:09:43.845Z,1.50
2022-09-03T05:10:43.830Z,1.20
2022-09-03T05:11:43.819Z,1.30
2022-09-03T05:12:43.808Z,1.10
2022-09-03T05:13:43.827Z,1.40
2022-09-03T05:14:43.793Z,1.10
2022-09-03T05:15:43.783Z,1.10
2022-09-03T05:16:43.832Z,1.30
2022-09-03T05:17:44.772Z,1.20
2022-09-03T05:18:43.765Z,1.20
2022-09-03T05:19:43.741Z,1.30
2022-09-03T05:20:43.752Z,1.00
2022-09-03T05:21:43.707Z,1.20
2022-09-03T05:22:43.710Z,1.40
2022-09-03T05:23:43.701Z,1.20
2022-09-03T05:24:43.727Z,1.10
2022-09-03T05:25:43.678Z,1.10
2022-09-03T05:26:43.681Z,1.10
2022-09-03T05:27:43.659Z,1.10
2022-09-03T05:28:43.648Z,1.00
2022-09-03T05:29:43.662Z,1.40
2022-09-03T05:30:43.629Z,1.10
2022-09-03T05:31:43.654Z,1.20
2022-09-03T05:32:43.616Z,1.00
2022-09-03T05:33:43.607Z,1.10
2022-09-03T05:34:43.607Z,1.10
2022-09-03T05:35:43.588Z,1.10
2022-09-03T05:36:43.605Z,1.10
2022-09-03T05:37:43.598Z,1.20
2022-09-03T05:38:43.558Z,1.10
2022-09-03T05:39:43.600Z,1.10
2022-09-03T05:40:43.534Z,1.10
2022-09-03T05:41:43.535Z,1.20
2022-09-03T05:42:43.544Z,1.40
2022-09-03T05:43:43.506Z,1.30
2022-09-03T05:44:43.520Z,1.20
2022-09-03T05:45:43.536Z,1.20
2022-09-03T05:46:43.482Z,1.40
2022-09-03T05:47:43.464Z,1.20
2022-09-03T05:48:43.453Z,0.90
2022-09-03T05:49:43.472Z,1.30
2022-09-03T05:50:43.440Z,1.30
2022-09-03T05:51:43.441Z,1.40
2022-09-03T05:52:43.426Z,1.30
2022-09-03T05:53:43.404Z,1.30
2022-09-03T05:54:43.399Z,1.40
2022-09-03T05:55:43.403Z,1.30
2022-09-03T05:56:43.379Z,1.10
2022-09-03T05:57:43.371Z,1.30
2022-09-03T05:58:43.364Z,1.30
2022-09-03T05:59:43.340Z,1.30
2022-09-03T06:00:43.359Z,1.20
2022-09-03T06:01:47.823Z,1.10
2022-09-03T06:02:44.457Z,1.20
2022-09-03T06:03:43.473Z,1.10
2022-09-03T06:04:43.286Z,1.30
2022-09-03T06:05:43.291Z,1.10
2022-09-03T06:06:43.318Z,1.10
2022-09-03T06:07:43.257Z,1.20
2022-09-03T06:08:43.256Z,1.00
2022-09-03T06:09:43.238Z,1.20
2022-09-03T06:10:45.050Z,1.10
2022-09-03T06:11:43.227Z,1.10
2022-09-03T06:12:43.225Z,1.30
2022-09-03T06:13:43.200Z,1.20
2022-09-03T06:14:43.191Z,1.10
2022-09-03T06:15:43.180Z,1.50
2022-09-03T06:16:43.265Z,1.10
2022-09-03T06:17:43.189Z,1.30
2022-09-03T06:18:43.145Z,1.10
2022-09-03T06:19:43.132Z,1.20
2022-09-03T06:20:43.132Z,1.40
2022-09-03T06:21:43.188Z,1.20
2022-09-03T06:22:43.107Z,1.20
2022-09-03T06:23:46.601Z,1.10
2022-09-03T06:24:43.095Z,1.20
2022-09-03T06:25:43.086Z,1.20
2022-09-03T06:26:43.303Z,1.10
2022-09-03T06:27:43.066Z,1.10
2022-09-03T06:28:43.068Z,1.10
2022-09-03T06:29:43.039Z,1.30
2022-09-03T06:30:43.032Z,1.20
2022-09-03T06:31:43.059Z,1.10
2022-09-03T06:32:43.005Z,1.30
2022-09-03T06:33:43.000Z,1.10
2022-09-03T06:34:43.018Z,1.10
2022-09-03T06:35:43.344Z,1.20
2022-09-03T06:36:42.967Z,1.30
2022-09-03T06:37:42.965Z,1.00
2022-09-03T06:38:42.952Z,1.10
2022-09-03T06:39:42.997Z,1.30
2022-09-03T06:40:42.943Z,1.20
2022-09-03T06:41:42.920Z,1.00
2022-09-03T06:42:46.049Z,1.10
2022-09-03T06:43:42.905Z,1.20
2022-09-03T06:44:43.001Z,1.20
2022-09-03T06:45:42.926Z,1.20
2022-09-03T06:46:43.066Z,0.90
2022-09-03T06:47:42.900Z,1.10
2022-09-03T06:48:42.868Z,1.30
2022-09-03T06:49:42.850Z,1.10
2022-09-03T06:50:42.837Z,1.10
2022-09-03T06:51:42.832Z,1.10
2022-09-03T06:52:42.836Z,1.30
2022-09-03T06:53:42.812Z,1.20
2022-09-03T06:54:42.801Z,1.20
2022-09-03T06:55:42.794Z,1.20
2022-09-03T06:56:42.781Z,1.30
2022-09-03T06:57:42.796Z,1.30
2022-09-03T06:58:42.758Z,1.10
2022-09-03T06:59:42.781Z,1.10
2022-09-03T07:00:42.787Z,1.00
2022-09-03T07:01:44.301Z,1.00
2022-09-03T07:02:44.901Z,1.10
2022-09-03T07:03:42.709Z,1.10
2022-09-03T07:04:42.723Z,1.30
2022-09-03T07:05:42.697Z,1.20
2022-09-03T07:06:43.154Z,1.50
2022-09-03T07:07:42.705Z,1.50
2022-09-03T07:08:42.660Z,1.10
2022-09-03T07:09:46.367Z,1.20
2022-09-03T07:10:44.643Z,1.20
2022-09-03T07:11:42.633Z,1.20
2022-09-03T07:12:42.638Z,1.00
2022-09-03T07:13:42.624Z,1.10
2022-09-03T07:14:42.597Z,1.50
2022-09-03T07:15:42.593Z,1.20
2022-09-03T07:16:42.637Z,1.30
2022-09-03T07:17:42.576Z,1.30
2022-09-03T07:18:43.560Z,1.20
2022-09-03T07:19:42.565Z,1.00
2022-09-03T07:21:14.531Z,1.00
2022-09-03T07:21:46.710Z,1.00
2022-09-03T07:22:44.527Z,1.20
2022-09-03T07:23:42.514Z,1.00
2022-09-03T07:24:42.607Z,1.00
2022-09-03T07:25:42.536Z,1.20
2022-09-03T07:26:42.564Z,1.00
2022-09-03T07:27:43.310Z,1.20
2022-09-03T07:28:42.577Z,1.00
2022-09-03T07:29:42.488Z,1.00
2022-09-03T07:30:42.448Z,1.20
2022-09-03T07:31:42.474Z,1.10
2022-09-03T07:32:42.414Z,1.20
2022-09-03T07:33:42.407Z,1.00
2022-09-03T07:34:42.423Z,1.10
2022-09-03T07:35:42.420Z,1.20
2022-09-03T07:36:42.394Z,0.90
2022-09-03T07:37:42.375Z,0.80
2022-09-03T07:38:42.367Z,1.00
2022-09-03T07:39:42.382Z,1.00
2022-09-03T07:40:42.382Z,1.10
2022-09-03T07:41:42.352Z,1.10
2022-09-03T07:42:42.337Z,1.00
2022-09-03T07:43:42.321Z,0.90
2022-09-03T07:44:42.352Z,0.90
2022-09-03T07:45:42.314Z,1.30
2022-09-03T07:46:42.340Z,1.00
2022-09-03T07:47:42.301Z,1.00
2022-09-03T07:48:43.303Z,1.20
2022-09-03T07:49:42.286Z,1.10
2022-09-03T07:50:42.256Z,1.00
2022-09-03T07:51:42.279Z,1.10
2022-09-03T07:52:42.259Z,1.00
2022-09-03T07:53:42.228Z,1.00
2022-09-03T07:54:42.218Z,1.00
2022-09-03T07:55:42.208Z,1.10
2022-09-03T07:56:42.222Z,1.00
2022-09-03T07:57:42.189Z,1.10
2022-09-03T07:58:42.196Z,0.90
2022-09-03T07:59:42.161Z,1.00
2022-09-03T08:00:42.264Z,0.90
2022-09-03T08:01:42.155Z,1.10
2022-09-03T08:02:46.138Z,0.90
2022-09-03T08:03:43.178Z,1.00
2022-09-03T08:04:42.147Z,1.30
2022-09-03T08:05:42.110Z,1.00
2022-09-03T08:06:42.121Z,1.10
2022-09-03T08:07:42.113Z,1.10
2022-09-03T08:08:42.080Z,1.20
2022-09-03T08:09:42.105Z,0.90
2022-09-03T08:10:42.068Z,1.10
2022-09-03T08:11:42.058Z,1.20
2022-09-03T08:12:42.051Z,1.10
2022-09-03T08:13:42.028Z,0.90
2022-09-03T08:14:42.044Z,1.00
2022-09-03T08:15:42.016Z,0.80
2022-09-03T08:16:42.011Z,0.80
2022-09-03T08:17:42.008Z,1.00
2022-09-03T08:18:41.989Z,1.30
2022-09-03T08:19:41.991Z,0.80
2022-09-03T08:20:41.963Z,0.90
2022-09-03T08:21:41.963Z,1.30
2022-09-03T08:22:41.979Z,1.10
2022-09-03T08:23:41.949Z,0.80
2022-09-03T08:24:41.931Z,0.90
2022-09-03T08:25:41.918Z,1.10
2022-09-03T08:26:41.984Z,1.30
2022-09-03T08:27:41.894Z,1.10
2022-09-03T08:28:41.884Z,0.80
2022-09-03T08:29:41.897Z,0.90
2022-09-03T08:30:41.868Z,0.90
2022-09-03T08:31:41.979Z,1.30
2022-09-03T08:32:41.843Z,1.00
2022-09-03T08:33:41.837Z,1.10
2022-09-03T08:34:41.849Z,1.00
2022-09-03T08:35:41.815Z,0.80
2022-09-03T08:36:41.808Z,1.20
2022-09-03T08:37:41.811Z,0.90
2022-09-03T08:38:41.807Z,1.00
2022-09-03T08:39:41.817Z,0.90
2022-09-03T08:40:41.766Z,1.00
2022-09-03T08:41:41.789Z,1.00
2022-09-03T08:42:41.744Z,1.10
2022-09-03T08:43:41.756Z,0.90
2022-09-03T08:44:41.711Z,1.00
2022-09-03T08:45:41.717Z,1.20
2022-09-03T08:46:41.752Z,1.10
2022-09-03T08:47:41.688Z,1.00
2022-09-03T08:48:41.705Z,1.20
2022-09-03T08:49:41.676Z,0.90
2022-09-03T08:50:41.668Z,1.00
2022-09-03T08:51:41.669Z,1.20
2022-09-03T08:52:41.673Z,1.40
2022-09-03T08:53:41.632Z,0.90
2022-09-03T08:54:41.641Z,1.00
2022-09-03T08:55:41.618Z,1.10
2022-09-03T08:56:41.617Z,0.90
2022-09-03T08:57:41.623Z,1.20
2022-09-03T08:58:41.576Z,0.90
2022-09-03T08:59:41.601Z,1.10
2022-09-03T09:00:41.566Z,0.90
2022-09-03T09:01:41.719Z,1.00
2022-09-03T09:02:41.638Z,0.80
2022-09-03T09:03:41.551Z,1.00
2022-09-03T09:04:41.541Z,0.80
2022-09-03T09:05:41.513Z,0.80
2022-09-03T09:06:41.553Z,1.00
2022-09-03T09:07:41.488Z,1.00
2022-09-03T09:08:41.519Z,1.00
2022-09-03T09:09:41.480Z,1.00
2022-09-03T09:10:41.480Z,1.10
2022-09-03T09:11:42.476Z,1.10
2022-09-03T09:12:46.529Z,0.90
2022-09-03T09:13:42.437Z,1.10
2022-09-03T09:14:41.413Z,1.00
2022-09-03T09:15:41.469Z,1.00
2022-09-03T09:16:41.405Z,1.00
2022-09-03T09:17:41.426Z,1.10
2022-09-03T09:18:41.377Z,0.90
2022-09-03T09:19:41.394Z,0.90
2022-09-03T09:20:41.365Z,0.90
2022-09-03T09:21:41.355Z,0.90
2022-09-03T09:22:41.353Z,1.00
2022-09-03T09:23:42.337Z,0.90
2022-09-03T09:24:41.364Z,1.20
2022-09-03T09:25:41.317Z,1.00
2022-09-03T09:26:41.298Z,0.90
2022-09-03T09:27:41.295Z,1.00
2022-09-03T09:28:41.285Z,1.10
2022-09-03T09:29:41.278Z,1.00
2022-09-03T09:30:41.299Z,1.00
2022-09-03T09:31:41.338Z,0.90
2022-09-03T09:32:41.268Z,1.00
2022-09-03T09:33:41.313Z,1.20
2022-09-03T09:34:41.241Z,1.00
2022-09-03T09:35:41.239Z,1.40
2022-09-03T09:36:41.219Z,1.10
2022-09-03T09:37:41.211Z,1.00
2022-09-03T09:38:41.209Z,1.10
2022-09-03T09:39:41.211Z,0.90
2022-09-03T09:40:45.184Z,0.80
2022-09-03T09:41:42.154Z,1.10
2022-09-03T09:42:41.154Z,0.90
2022-09-03T09:43:41.190Z,1.10
2022-09-03T09:44:41.189Z,0.90
2022-09-03T09:45:41.113Z,1.00
2022-09-03T09:46:41.255Z,1.20
2022-09-03T09:47:41.096Z,1.00
2022-09-03T09:48:41.090Z,1.40
2022-09-03T09:49:41.107Z,0.90
2022-09-03T09:50:41.060Z,1.10
2022-09-03T09:51:41.058Z,1.00
2022-09-03T09:52:41.054Z,0.90
2022-09-03T09:53:41.052Z,0.80
2022-09-03T09:54:41.047Z,1.10
2022-09-03T09:55:41.023Z,1.00
2022-09-03T09:56:41.051Z,0.90
2022-09-03T09:57:40.993Z,1.00
2022-09-03T09:58:40.993Z,0.90
2022-09-03T09:59:40.989Z,1.10
2022-09-03T10:00:41.000Z,0.90
2022-09-03T10:01:41.010Z,0.90
2022-09-03T10:02:40.962Z,0.90
2022-09-03T10:03:40.944Z,0.80
2022-09-03T10:04:40.929Z,1.20
2022-09-03T10:05:40.939Z,1.00
2022-09-03T10:06:40.906Z,0.80
2022-09-03T10:07:40.893Z,0.80
2022-09-03T10:08:40.913Z,1.10
2022-09-03T10:09:40.878Z,0.90
2022-09-03T10:10:40.868Z,1.00
2022-09-03T10:11:40.864Z,1.00
2022-09-03T10:12:40.838Z,1.00
2022-09-03T10:13:40.855Z,0.80
2022-09-03T10:14:40.829Z,0.80
2022-09-03T10:15:40.866Z,0.80
2022-09-03T10:16:40.802Z,1.10
2022-09-03T10:17:40.806Z,0.80
2022-09-03T10:18:40.810Z,0.70
2022-09-03T10:19:40.782Z,0.70
2022-09-03T10:20:40.762Z,0.80
2022-09-03T10:21:40.762Z,1.10
2022-09-03T10:22:40.755Z,0.70
2022-09-03T10:23:41.763Z,1.00
2022-09-03T10:24:40.739Z,0.90
2022-09-03T10:25:40.743Z,0.80
2022-09-03T10:26:40.722Z,0.90
2022-09-03T10:27:41.158Z,0.90
2022-09-03T10:28:40.719Z,0.80
2022-09-03T10:29:40.683Z,0.90
2022-09-03T10:30:40.719Z,0.80
2022-09-03T10:31:40.668Z,0.90
2022-09-03T10:32:43.828Z,1.10
2022-09-03T10:33:40.638Z,0.60
2022-09-03T10:34:40.630Z,0.80
2022-09-03T10:35:40.621Z,0.70
2022-09-03T10:36:40.612Z,0.80
2022-09-03T10:37:40.626Z,1.00
2022-09-03T10:38:40.596Z,0.70
2022-09-03T10:39:43.222Z,0.90
2022-09-03T10:40:40.573Z,0.90
2022-09-03T10:41:40.569Z,0.90
2022-09-03T10:42:40.571Z,0.80
2022-09-03T10:43:40.732Z,0.80
2022-09-03T10:44:40.573Z,0.90
2022-09-03T10:45:40.533Z,0.90
2022-09-03T10:46:40.601Z,0.90
2022-09-03T10:47:40.525Z,0.80
2022-09-03T10:48:40.543Z,0.90
2022-09-03T10:49:40.530Z,0.90
2022-09-03T10:50:40.477Z,0.80
2022-09-03T10:51:40.470Z,0.80
2022-09-03T10:52:40.457Z,1.10
2022-09-03T10:53:40.442Z,0.70
2022-09-03T10:54:40.441Z,0.70
2022-09-03T10:55:40.477Z,0.90
2022-09-03T10:56:40.413Z,0.90
2022-09-03T10:57:40.422Z,0.80
2022-09-03T10:58:40.386Z,0.70
2022-09-03T10:59:40.381Z,0.70
2022-09-03T11:00:40.376Z,0.90
2022-09-03T11:01:40.403Z,0.80
2022-09-03T11:02:40.485Z,0.70
2022-09-03T11:03:40.352Z,0.80
2022-09-03T11:04:40.329Z,1.00
2022-09-03T11:05:40.343Z,0.80
2022-09-03T11:06:40.313Z,0.90
2022-09-03T11:07:40.285Z,0.60
2022-09-03T11:08:40.309Z,0.90
2022-09-03T11:09:40.280Z,0.70
2022-09-03T11:10:40.283Z,0.80
2022-09-03T11:11:40.269Z,0.60
2022-09-03T11:12:40.250Z,0.70
2022-09-03T11:13:40.229Z,0.70
2022-09-03T11:14:40.284Z,0.90
2022-09-03T11:15:40.317Z,0.90
2022-09-03T11:16:40.219Z,1.00
2022-09-03T11:17:40.213Z,0.90
2022-09-03T11:18:40.226Z,1.00
2022-09-03T11:19:40.194Z,0.90
2022-09-03T11:20:40.184Z,0.70
2022-09-03T11:21:40.160Z,0.90
2022-09-03T11:22:40.156Z,0.80
2022-09-03T11:23:40.135Z,0.70
2022-09-03T11:24:40.127Z,0.80
2022-09-03T11:25:40.185Z,0.90
2022-09-03T11:26:40.133Z,0.80
2022-09-03T11:27:40.097Z,0.90
2022-09-03T11:28:40.083Z,0.80
2022-09-03T11:29:40.076Z,0.90
2022-09-03T11:30:40.133Z,0.80
2022-09-03T11:31:40.084Z,0.60
2022-09-03T11:32:40.036Z,0.70
2022-09-03T11:33:40.036Z,0.90
2022-09-03T11:34:40.023Z,0.80
2022-09-03T11:35:40.018Z,0.90
2022-09-03T11:36:42.721Z,0.80
2022-09-03T11:37:41.012Z,0.80
2022-09-03T11:38:39.989Z,1.30
2022-09-03T11:39:40.059Z,0.90
2022-09-03T11:40:39.990Z,0.90
2022-09-03T11:41:39.958Z,0.80
2022-09-03T11:42:39.943Z,0.80
2022-09-03T11:43:39.934Z,0.60
2022-09-03T11:44:40.906Z,0.80
2022-09-03T11:45:41.027Z,1.10
2022-09-03T11:46:39.967Z,0.90
2022-09-03T11:47:39.902Z,1.00
2022-09-03T11:48:39.885Z,0.70
2022-09-03T11:49:39.892Z,0.70
2022-09-03T11:50:39.872Z,0.90
2022-09-03T11:51:39.871Z,0.90
2022-09-03T11:52:39.856Z,0.80
2022-09-03T11:53:39.866Z,0.80
2022-09-03T11:54:39.826Z,0.90
2022-09-03T11:55:43.714Z,0.80
2022-09-03T11:56:39.824Z,0.90
2022-09-03T11:57:39.803Z,0.70
2022-09-03T11:58:39.803Z,1.00
2022-09-03T11:59:39.784Z,0.70
2022-09-03T12:00:39.761Z,0.90
2022-09-03T12:01:39.754Z,0.80
2022-09-03T12:02:39.855Z,0.80
2022-09-03T12:03:39.767Z,1.00
2022-09-03T12:04:39.788Z,0.70
2022-09-03T12:05:39.732Z,0.80
2022-09-03T12:06:39.712Z,0.60
2022-09-03T12:07:39.709Z,0.60
2022-09-03T12:08:39.703Z,0.90
2022-09-03T12:09:39.705Z,0.90
2022-09-03T12:10:39.674Z,0.70
2022-09-03T12:11:39.685Z,0.80
2022-09-03T12:12:39.651Z,0.90
2022-09-03T12:13:39.642Z,0.80
2022-09-03T12:14:39.628Z,0.70
2022-09-03T12:15:39.727Z,0.80
2022-09-03T12:16:39.627Z,0.80
2022-09-03T12:17:39.600Z,0.90
2022-09-03T12:18:39.639Z,0.80
2022-09-03T12:19:39.584Z,0.90
2022-09-03T12:20:39.581Z,0.80
2022-09-03T12:21:39.558Z,0.90
2022-09-03T12:22:39.553Z,1.00
2022-09-03T12:23:39.553Z,0.90
2022-09-03T12:24:39.519Z,1.00
2022-09-03T12:25:39.520Z,0.80
2022-09-03T12:26:39.536Z,1.00
2022-09-03T12:27:39.501Z,0.80
2022-09-03T12:28:40.681Z,0.90
2022-09-03T12:29:39.483Z,0.90
2022-09-03T12:30:39.510Z,0.90
2022-09-03T12:31:43.030Z,0.90
2022-09-03T12:32:40.483Z,1.30
2022-09-03T12:33:39.447Z,1.30
2022-09-03T12:34:39.433Z,0.90
2022-09-03T12:36:39.426Z,1.00
2022-09-03T12:39:10.037Z,0.80
2022-09-03T12:41:24.293Z,0.80
2022-09-03T12:41:41.456Z,0.80
2022-09-03T12:42:39.356Z,0.80
2022-09-03T12:43:50.037Z,0.90
2022-09-03T12:44:39.336Z,0.90
2022-09-03T12:46:40.352Z,0.80
2022-09-03T12:47:39.406Z,1.00
2022-09-03T12:48:43.581Z,0.90
2022-09-03T12:49:40.307Z,1.00
2022-09-03T12:50:42.404Z,1.10
2022-09-03T12:51:49.884Z,0.80
2022-09-03T12:52:41.262Z,0.90
2022-09-03T12:53:39.244Z,1.00
2022-09-03T12:54:39.251Z,0.90
2022-09-03T12:55:39.245Z,0.80
2022-09-03T12:56:42.406Z,0.90
2022-09-03T12:57:40.230Z,1.00
2022-09-03T12:58:39.199Z,0.90
2022-09-03T12:59:39.209Z,1.00
2022-09-03T13:00:39.181Z,0.80
2022-09-03T13:01:39.265Z,0.80
2022-09-03T13:02:39.152Z,0.90
2022-09-03T13:03:39.136Z,0.80
2022-09-03T13:04:39.160Z,0.90
2022-09-03T13:05:39.120Z,0.90
2022-09-03T13:06:39.142Z,0.80
2022-09-03T13:07:39.104Z,0.80
2022-09-03T13:08:39.098Z,0.90
2022-09-03T13:09:39.106Z,0.90
2022-09-03T13:10:39.077Z,0.80
2022-09-03T13:11:39.069Z,0.90
2022-09-03T13:12:39.065Z,0.90
2022-09-03T13:13:39.051Z,1.10
2022-09-03T13:14:39.062Z,0.70
2022-09-03T13:15:39.053Z,0.80
2022-09-03T13:16:39.068Z,1.10
2022-09-03T13:17:39.023Z,0.90
2022-09-03T13:18:39.009Z,1.10
2022-09-03T13:19:39.005Z,0.80
2022-09-03T13:21:10.921Z,0.80
2022-09-03T13:21:38.978Z,0.90
2022-09-03T13:22:38.971Z,0.90